Terminal Aerodrome Forecast
Issued by NWS

Home | Current Version | Previous Version | Text Only | Print | Product List | Glossary On
Versions: 1 2 3 4 5 6 7 8 9 10 11 12 13 14 15 16 17 18 19 20 21 22 23 24 25 26
902
FTUS41 KBUF 061734
TAFJHW
TAF
KJHW 061734Z 0618/0718 14013G23KT P6SM OVC090
     FM061900 14013G24KT 6SM -RA OVC080
     FM062100 15012G21KT 2SM -RASN OVC007
     FM062300 14011G18KT 2SM -SN OVC007
     FM070400 17010KT 3SM -SN OVC003
     FM070700 21009KT P6SM OVC003
     FM071100 26010G18KT P6SM BKN012
      AMD LTD TO CLD VIS AND WIND=

USA.gov is the U.S. government's official web portal to all federal, state and local government web resources and services.